Time;durP1;ratioP1;P1;durP2;ratioP2;P2;SDS_P1;SDS_P2;PMS_P1;PMS_P2;Temp;Humidity;BMP_temperature;BMP_pressure;BME280_temperature;BME280_humidity;BME280_pressure;Samples;Min_cycle;Max_cycle;Signal;HPM_P1;HPM_P2
2021/01/22 00:02:11;;;;;;;51.47;30.43;;;;;;;0.23;70.23;101291.00;4915206;29;20410;-71
2021/01/22 00:04:36;;;;;;;50.03;28.07;;;;;;;0.22;69.65;101295.97;4914495;29;20471;-71
2021/01/22 00:07:02;;;;;;;48.13;27.67;;;;;;;0.04;68.04;101254.53;4916755;29;20035;-71
2021/01/22 00:09:28;;;;;;;46.90;29.40;;;;;;;0.12;68.53;101259.56;4917047;29;21205;-72
2021/01/22 00:11:53;;;;;;;50.27;29.53;;;;;;;0.35;68.35;101288.72;4917446;29;20032;-71
2021/01/22 00:14:19;;;;;;;53.13;29.73;;;;;;;0.36;68.26;101293.00;4921248;29;20027;-71
2021/01/22 00:16:44;;;;;;;50.10;29.47;;;;;;;-0.14;68.98;101247.00;4916302;29;20020;-70
2021/01/22 00:19:10;;;;;;;49.53;29.47;;;;;;;-0.10;69.76;101298.94;4918038;29;20087;-72
2021/01/22 00:21:36;;;;;;;45.87;28.10;;;;;;;-0.20;69.54;101299.75;4930443;29;20059;-69
2021/01/22 00:24:03;;;;;;;49.00;28.70;;;;;;;-0.39;69.75;101286.97;4937536;29;20059;-71
2021/01/22 00:26:28;;;;;;;49.63;28.27;;;;;;;-0.74;70.20;101282.00;4936881;28;20031;-71
2021/01/22 00:28:53;;;;;;;46.97;27.87;;;;;;;-0.71;70.88;101300.03;4921746;29;20110;-71
2021/01/22 00:31:19;;;;;;;43.37;26.43;;;;;;;-0.57;71.09;101296.31;4921237;29;20067;-69
2021/01/22 00:33:45;;;;;;;45.50;26.23;;;;;;;-0.80;71.27;101238.31;4944934;28;20122;-69
2021/01/22 00:36:10;;;;;;;42.00;25.07;;;;;;;-0.50;71.54;101296.09;4934033;28;20027;-69
2021/01/22 00:38:36;;;;;;;41.53;26.10;;;;;;;-0.50;71.31;101312.25;4932945;29;20043;-71
2021/01/22 00:41:01;;;;;;;45.67;27.57;;;;;;;-0.47;71.65;101301.50;4931425;29;20058;-72
2021/01/22 00:43:26;;;;;;;41.57;25.17;;;;;;;-0.66;71.61;101250.69;4929737;29;20043;-70
2021/01/22 00:45:52;;;;;;;44.67;26.90;;;;;;;-0.33;71.30;101297.72;4914575;29;20027;-69
2021/01/22 00:48:17;;;;;;;44.77;28.33;;;;;;;-0.29;71.03;101294.69;4914005;29;20474;-68
2021/01/22 00:50:43;;;;;;;48.77;28.70;;;;;;;-0.22;71.06;101308.88;4920364;29;20079;-66
2021/01/22 00:53:08;;;;;;;48.90;28.83;;;;;;;-0.18;71.04;101303.31;4933497;29;20833;-70
2021/01/22 00:55:34;;;;;;;44.60;26.30;;;;;;;-0.25;71.09;101289.19;4979763;28;21895;-70
2021/01/22 00:57:59;;;;;;;44.10;28.83;;;;;;;-0.14;71.11;101289.28;4933791;29;20024;-69
2021/01/22 01:00:25;;;;;;;43.90;27.10;;;;;;;-0.14;70.75;101274.03;4933774;29;20055;-66
2021/01/22 01:02:50;;;;;;;43.50;27.00;;;;;;;-0.17;70.51;101267.94;4933778;29;20032;-69
2021/01/22 01:05:17;;;;;;;42.97;26.83;;;;;;;-0.14;70.23;101274.03;4936861;29;20091;-66
2021/01/22 01:07:43;;;;;;;42.10;25.33;;;;;;;0.01;70.38;101282.19;4951549;29;20409;-69
2021/01/22 01:10:09;;;;;;;44.13;27.10;;;;;;;-0.03;70.34;101286.97;4937157;29;20036;-71
2021/01/22 01:12:34;;;;;;;40.70;26.60;;;;;;;-0.07;70.12;101277.28;4937069;29;20035;-74
2021/01/22 01:15:00;;;;;;;51.50;28.63;;;;;;;0.02;69.60;101282.31;4936723;29;20024;-72
2021/01/22 01:17:25;;;;;;;43.07;24.27;;;;;;;-0.19;69.67;101287.22;4937076;29;20032;-71
2021/01/22 01:19:51;;;;;;;48.93;26.87;;;;;;;-0.46;70.28;101264.31;4936595;29;20406;-71
2021/01/22 01:22:16;;;;;;;46.80;26.70;;;;;;;-0.64;70.57;101256.78;4936303;29;20039;-75
2021/01/22 01:24:42;;;;;;;44.67;26.17;;;;;;;-0.60;70.94;101255.41;4936844;29;20027;-72
2021/01/22 01:27:07;;;;;;;47.47;26.57;;;;;;;-0.47;70.71;101258.38;4936995;29;20026;-69
2021/01/22 01:29:33;;;;;;;45.83;27.10;;;;;;;-0.56;70.53;101220.34;4936556;29;20034;-67
2021/01/22 01:31:58;;;;;;;44.47;25.40;;;;;;;-0.62;70.31;101204.56;4936461;29;20038;-70
2021/01/22 01:34:24;;;;;;;43.73;27.30;;;;;;;-0.34;70.21;101248.63;4936844;29;20383;-67
2021/01/22 01:36:49;;;;;;;39.57;24.77;;;;;;;-0.59;70.74;101212.44;4936553;29;20107;-66
2021/01/22 01:39:14;;;;;;;46.70;26.77;;;;;;;-0.36;69.99;101252.66;4936516;29;20064;-71
2021/01/22 01:41:40;;;;;;;45.27;24.93;;;;;;;-0.65;70.47;101254.97;4936653;29;20503;-70
2021/01/22 01:44:06;;;;;;;42.37;24.57;;;;;;;-0.72;71.11;101223.09;4936517;29;20462;-69
2021/01/22 01:46:32;;;;;;;45.73;24.87;;;;;;;-0.85;71.38;101195.69;4936629;29;20401;-69
2021/01/22 01:48:57;;;;;;;40.43;24.07;;;;;;;-1.08;71.53;101197.69;4936820;29;20159;-75
2021/01/22 01:51:23;;;;;;;38.50;23.40;;;;;;;-0.88;71.43;101230.88;4935932;29;20536;-71
2021/01/22 01:53:49;;;;;;;42.30;23.47;;;;;;;-0.71;71.25;101241.72;4936119;29;20082;-71
2021/01/22 01:56:15;;;;;;;39.17;23.43;;;;;;;-0.70;70.82;101240.97;4936599;29;20035;-72
2021/01/22 01:58:40;;;;;;;38.97;23.73;;;;;;;-0.67;70.92;101232.00;4936455;29;20034;-72
2021/01/22 02:01:09;;;;;;;37.70;22.63;;;;;;;-0.66;70.69;101238.00;4935989;29;20418;-70
2021/01/22 02:03:34;;;;;;;40.17;24.67;;;;;;;-1.04;70.71;101227.66;4936419;29;20032;-73
2021/01/22 02:06:00;;;;;;;41.80;25.67;;;;;;;-1.36;72.17;101228.88;4934541;29;20139;-73
2021/01/22 02:08:26;;;;;;;46.13;26.93;;;;;;;-1.37;72.97;101239.75;4936561;29;20027;-71
2021/01/22 02:10:53;;;;;;;50.13;27.87;;;;;;;-1.37;72.92;101213.50;4936155;29;20035;-72
2021/01/22 02:13:19;;;;;;;46.23;27.20;;;;;;;-1.11;72.26;101226.13;4936329;29;20027;-71
2021/01/22 02:15:46;;;;;;;42.17;25.00;;;;;;;-1.80;72.26;101111.53;4937913;28;20082;-71
2021/01/22 02:18:12;;;;;;;45.60;26.57;;;;;;;-1.49;72.19;101160.94;4950560;28;20043;-73
2021/01/22 02:21:02;;;;;;;48.80;26.57;;;;;;;-1.11;72.04;101202.47;4935408;29;20194;-72
2021/01/22 02:23:31;;;;;;;40.72;25.33;;;;;;;-0.95;72.35;101218.38;4936061;29;20039;-73
2021/01/22 02:26:05;;;;;;;;;;;;;;;-0.87;71.58;101219.13;4938101;29;20067;-74
2021/01/22 02:28:31;;;;;;;43.87;25.73;;;;;;;-0.87;71.91;101212.41;4935473;29;19918;-72
2021/01/22 02:30:57;;;;;;;46.30;25.70;;;;;;;-1.35;71.74;101166.44;4935446;29;20087;-73
2021/01/22 02:33:23;;;;;;;43.60;25.83;;;;;;;-1.01;71.67;101220.31;4935717;29;20028;-73
2021/01/22 02:35:53;;;;;;;37.10;24.00;;;;;;;-1.17;71.57;101215.44;4935681;29;20038;-70
2021/01/22 02:38:20;;;;;;;36.77;24.30;;;;;;;-1.17;71.27;101206.19;4935331;28;20075;-73
2021/01/22 02:40:47;;;;;;;40.43;23.73;;;;;;;-1.06;71.11;101216.44;4935678;29;20038;-71
2021/01/22 02:43:15;;;;;;;44.33;25.87;;;;;;;-1.06;71.49;101222.44;4935489;29;20035;-72
2021/01/22 02:45:41;;;;;;;38.47;23.40;;;;;;;-1.09;71.30;101214.53;4935080;29;20044;-72
2021/01/22 02:48:07;;;;;;;42.83;24.17;;;;;;;-1.02;71.73;101221.97;4935570;29;20467;-69
2021/01/22 02:50:35;;;;;;;45.70;26.27;;;;;;;-0.86;71.14;101226.88;4934970;29;20505;-67
2021/01/22 02:53:04;;;;;;;42.93;26.57;;;;;;;-0.89;71.16;101224.00;4935420;29;20028;-67
2021/01/22 02:55:30;;;;;;;;;;;;;;;-1.10;71.56;101216.91;4964654;28;20052;-65
2021/01/22 02:58:25;;;;;;;42.20;25.13;;;;;;;-1.22;71.88;101220.06;4934741;28;20286;-66
2021/01/22 03:00:56;;;;;;;45.80;25.47;;;;;;;-1.40;71.94;101205.63;4935231;29;20024;-68
2021/01/22 03:03:40;;;;;;;39.63;25.37;;;;;;;-1.67;72.26;101219.91;4935481;29;20020;-68
2021/01/22 03:06:12;;;;;;;47.40;27.20;;;;;;;-1.64;72.83;101216.03;4935076;29;20116;-67
2021/01/22 03:08:40;;;;;;;44.17;27.10;;;;;;;-1.52;71.92;101231.56;4934811;29;20498;-69
2021/01/22 03:11:07;;;;;;;42.37;26.80;;;;;;;-1.62;73.05;101221.25;4934552;29;20490;-68
2021/01/22 03:13:33;;;;;;;47.53;29.50;;;;;;;-1.66;73.00;101211.59;4964684;28;20102;-64
2021/01/22 03:16:01;;;;;;;50.23;29.40;;;;;;;-1.63;73.01;101227.97;4934919;29;20020;-69
2021/01/22 03:18:26;;;;;;;53.20;28.23;;;;;;;-1.71;73.57;101212.78;4934758;29;20024;-67
2021/01/22 03:20:52;;;;;;;46.70;28.47;;;;;;;-1.86;74.11;101186.84;4934570;29;20034;-67
2021/01/22 03:23:19;;;;;;;48.37;27.57;;;;;;;-1.58;73.56;101236.03;4949456;29;20038;-68
2021/01/22 03:25:45;;;;;;;53.90;30.47;;;;;;;-1.71;73.98;101230.50;4949445;29;20043;-68
2021/01/22 03:28:11;;;;;;;56.37;32.03;;;;;;;-1.66;74.42;101229.31;4933825;28;20061;-67
2021/01/22 03:30:38;;;;;;;59.70;32.47;;;;;;;-1.68;74.32;101216.50;4964279;28;20043;-67
2021/01/22 03:33:04;;;;;;;61.07;35.40;;;;;;;-1.73;74.26;101224.38;4934424;29;20118;-67
2021/01/22 03:35:29;;;;;;;66.47;38.33;;;;;;;-1.73;74.85;101219.31;4934287;29;20039;-65
2021/01/22 03:37:56;;;;;;;60.17;34.93;;;;;;;-1.81;74.21;101180.59;4948356;29;20052;-66
2021/01/22 03:40:22;;;;;;;59.17;35.17;;;;;;;-1.56;73.86;101208.31;4934434;29;20474;-64
2021/01/22 03:42:48;;;;;;;62.77;38.07;;;;;;;-1.48;73.64;101220.09;4934586;29;20466;-71
2021/01/22 03:45:15;;;;;;;66.10;35.33;;;;;;;-1.45;73.49;101212.78;4934241;29;20031;-68
2021/01/22 03:47:41;;;;;;;68.00;38.20;;;;;;;-1.55;73.42;101216.03;4934193;29;20031;-71
2021/01/22 03:50:09;;;;;;;67.43;39.27;;;;;;;-1.85;74.54;101224.09;4947964;29;20043;-72
2021/01/22 03:52:36;;;;;;;64.88;36.13;;;;;;;-2.00;75.17;101223.47;4934321;28;20051;-68
2021/01/22 03:55:01;;;;;;;70.00;38.70;;;;;;;-2.10;75.56;101241.88;4934158;29;20059;-72
2021/01/22 03:57:26;;;;;;;65.83;37.73;;;;;;;-2.07;75.63;101241.28;4934642;29;20533;-67
2021/01/22 03:59:52;;;;;;;64.40;38.07;;;;;;;-1.90;75.25;101241.34;4927650;29;20036;-69
2021/01/22 04:02:19;;;;;;;65.33;39.07;;;;;;;-1.81;75.00;101237.19;4933830;29;20027;-69
2021/01/22 04:04:45;;;;;;;68.43;37.43;;;;;;;-2.02;75.17;101225.84;4933937;28;20118;-70
2021/01/22 04:07:13;;;;;;;68.67;40.07;;;;;;;-2.15;75.94;101254.06;4933823;29;20039;-70
2021/01/22 04:09:38;;;;;;;68.50;40.17;;;;;;;-2.08;75.74;101257.22;4933718;29;20039;-68
2021/01/22 04:12:04;;;;;;;64.73;38.23;;;;;;;-2.14;75.66;101255.88;4933823;29;20032;-71
2021/01/22 04:14:30;;;;;;;69.40;38.23;;;;;;;-2.04;75.33;101256.81;4933497;29;20067;-69
2021/01/22 04:16:56;;;;;;;73.03;43.60;;;;;;;-1.87;74.94;101230.63;4933546;29;20098;-70
2021/01/22 04:19:23;;;;;;;76.43;46.70;;;;;;;-1.95;74.43;101204.56;4933548;29;20035;-70
2021/01/22 04:21:48;;;;;;;68.27;40.97;;;;;;;-1.73;73.51;101219.31;4948595;29;20028;-72
2021/01/22 04:24:14;;;;;;;74.30;41.93;;;;;;;-1.65;73.43;101229.44;4937263;29;20038;-72
2021/01/22 04:26:41;;;;;;;71.27;44.50;;;;;;;-1.60;73.47;101229.91;4934239;28;20042;-72
2021/01/22 04:29:07;;;;;;;68.83;41.17;;;;;;;-1.39;72.63;101247.94;4933599;29;20027;-70
2021/01/22 04:31:32;;;;;;;71.63;38.57;;;;;;;-1.36;72.22;101245.69;4933748;29;20042;-70
2021/01/22 04:33:58;;;;;;;73.70;41.03;;;;;;;-1.43;72.35;101251.81;4933900;29;20035;-67
2021/01/22 04:36:23;;;;;;;71.17;40.07;;;;;;;-1.70;72.08;101192.66;4933172;29;20095;-69
2021/01/22 04:38:48;;;;;;;70.50;38.70;;;;;;;-1.58;71.90;101243.63;4934857;29;20090;-69
2021/01/22 04:41:14;;;;;;;67.57;37.37;;;;;;;-1.92;72.61;101226.75;4937124;29;20028;-70
2021/01/22 04:43:44;;;;;;;99.43;44.33;;;;;;;-1.82;72.98;101240.47;4920526;29;20032;-70
2021/01/22 04:46:11;;;;;;;72.25;38.83;;;;;;;-1.75;72.72;101230.94;4937298;29;20032;-69
2021/01/22 04:48:38;;;;;;;88.83;43.00;;;;;;;-1.68;72.18;101243.47;4936926;29;20451;-70
2021/01/22 04:51:04;;;;;;;62.93;37.80;;;;;;;-1.71;72.62;101235.56;4929362;29;20036;-68
2021/01/22 04:53:31;;;;;;;65.17;36.87;;;;;;;-1.67;72.78;101245.22;4937264;29;20493;-70
2021/01/22 04:55:59;;;;;;;57.53;35.37;;;;;;;-1.77;72.76;101242.53;4937218;29;20042;-70
2021/01/22 04:58:27;;;;;;;59.67;34.13;;;;;;;-1.81;72.62;101237.19;4937185;29;20024;-71
2021/01/22 05:00:52;;;;;;;62.90;36.57;;;;;;;-1.81;72.42;101233.75;4936967;29;20036;-68
2021/01/22 05:03:20;;;;;;;64.20;34.27;;;;;;;-2.03;72.96;101229.13;4937390;29;20027;-68
2021/01/22 05:05:46;;;;;;;61.70;34.93;;;;;;;-2.10;73.37;101243.53;4936951;28;20115;-70
2021/01/22 05:08:11;;;;;;;65.60;36.73;;;;;;;-2.17;73.43;101236.94;4936935;29;20038;-72
2021/01/22 05:10:36;;;;;;;64.13;34.50;;;;;;;-2.07;73.11;101254.81;4933828;29;21535;-70
2021/01/22 05:13:02;;;;;;;77.50;43.77;;;;;;;-2.02;73.51;101242.66;4933341;29;20032;-68
2021/01/22 05:15:29;;;;;;;75.17;42.30;;;;;;;-2.03;72.96;101220.59;4933572;29;20040;-67
2021/01/22 05:18:03;;;;;;;60.53;33.53;;;;;;;-2.28;72.94;101191.25;4931545;29;20032;-70
2021/01/22 05:20:34;;;;;;;57.67;31.33;;;;;;;-2.35;73.29;101239.41;4936782;29;20078;-69
2021/01/22 05:23:04;;;;;;;61.80;33.13;;;;;;;-2.54;73.86;101229.09;4936775;29;20466;-68
2021/01/22 05:25:30;;;;;;;53.03;30.67;;;;;;;-2.45;74.02;101232.53;4936627;28;20441;-70
2021/01/22 05:27:57;;;;;;;47.03;28.23;;;;;;;-2.39;73.83;101224.69;4936533;29;20506;-74
2021/01/22 05:30:28;;;;;;;49.47;29.17;;;;;;;-2.78;73.79;101164.28;4936430;29;20040;-68
2021/01/22 05:33:15;;;;;;;47.43;29.17;;;;;;;-2.60;74.35;101196.50;4936690;29;20094;-70
2021/01/22 05:35:40;;;;;;;51.73;28.63;;;;;;;-2.49;74.33;101206.81;4940602;28;20042;-67
2021/01/22 05:38:06;;;;;;;52.03;30.83;;;;;;;-2.43;74.60;101227.63;4936891;29;20490;-67
2021/01/22 05:40:31;;;;;;;51.63;29.03;;;;;;;-2.58;75.73;101226.97;4935614;29;20032;-68
2021/01/22 05:42:58;;;;;;;57.03;34.63;;;;;;;-2.55;75.38;101234.00;4936706;29;20031;-68
2021/01/22 05:45:38;;;;;;;57.23;34.57;;;;;;;-2.44;75.36;101226.75;4934946;29;20034;-69
2021/01/22 05:48:04;;;;;;;58.57;35.63;;;;;;;-2.39;74.93;101216.19;4936190;28;20024;-72
2021/01/22 05:50:56;;;;;;;55.27;35.27;;;;;;;-2.21;74.65;101218.03;4945791;28;20087;-70
2021/01/22 05:53:23;;;;;;;55.33;32.20;;;;;;;-2.18;74.14;101198.13;4936263;29;20059;-70
2021/01/22 05:56:08;;;;;;;56.37;31.60;;;;;;;-2.06;74.03;101213.63;4936056;29;20031;-70
2021/01/22 05:58:34;;;;;;;60.83;33.60;;;;;;;-1.98;74.01;101214.41;4933110;29;20107;-70
2021/01/22 06:01:12;;;;;;;56.80;33.03;;;;;;;-1.95;73.73;101212.16;4936100;29;20038;-70
2021/01/22 06:03:40;;;;;;;56.43;32.70;;;;;;;-1.96;73.60;101207.81;4936359;29;20035;-70
2021/01/22 06:06:07;;;;;;;55.93;33.10;;;;;;;-2.07;73.95;101210.94;4937911;29;20416;-70
2021/01/22 06:08:46;;;;;;;62.23;37.07;;;;;;;-2.18;74.54;101200.66;4955640;28;20048;-68
2021/01/22 06:11:12;;;;;;;55.87;34.63;;;;;;;-2.25;74.47;101198.25;4935141;29;20039;-71
2021/01/22 06:13:39;;;;;;;57.43;35.07;;;;;;;-2.05;74.46;101209.47;4950701;28;20071;-71
2021/01/22 06:16:05;;;;;;;61.57;34.43;;;;;;;-2.02;74.42;101195.47;4934330;29;20103;-71
2021/01/22 06:18:32;;;;;;;63.07;37.47;;;;;;;-1.98;74.51;101199.22;4935564;29;20028;-67
2021/01/22 06:21:13;;;;;;;67.03;39.20;;;;;;;-1.81;74.91;101208.44;4935898;29;20082;-70
2021/01/22 06:23:39;;;;;;;75.07;42.57;;;;;;;-2.05;76.26;101224.66;4922233;29;20062;-69
2021/01/22 06:26:05;;;;;;;69.40;41.80;;;;;;;-2.17;77.03;101194.84;4932385;29;20490;-68
2021/01/22 06:28:32;;;;;;;76.43;43.37;;;;;;;-1.94;77.02;101221.53;4923025;29;20036;-70
2021/01/22 06:30:57;;;;;;;78.90;43.27;;;;;;;-2.16;77.70;101195.75;4918201;29;20028;-72
2021/01/22 06:33:24;;;;;;;77.00;44.53;;;;;;;-2.13;77.81;101217.19;4935185;29;20119;-70
2021/01/22 06:35:50;;;;;;;76.67;44.53;;;;;;;-2.32;77.68;101168.03;4935336;29;20024;-69
2021/01/22 06:38:20;;;;;;;80.37;47.47;;;;;;;-1.98;77.80;101215.28;4929143;28;20054;-69
2021/01/22 06:40:46;;;;;;;94.23;52.03;;;;;;;-2.02;78.14;101218.25;4917855;29;20031;-70
2021/01/22 06:43:12;;;;;;;87.93;50.90;;;;;;;-1.87;77.84;101213.81;4928820;29;20067;-66
2021/01/22 06:45:38;;;;;;;79.63;46.13;;;;;;;-1.75;77.41;101203.09;4935572;29;20465;-70
2021/01/22 06:48:08;;;;;;;87.67;49.13;;;;;;;-1.66;77.54;101215.03;4924602;28;20024;-70
2021/01/22 06:50:36;;;;;;;88.10;48.60;;;;;;;-1.83;77.01;101177.06;4929670;28;20410;-69
2021/01/22 06:53:11;;;;;;;78.90;47.17;;;;;;;-1.58;77.30;101223.38;4919014;29;20059;-70
2021/01/22 06:55:59;;;;;;;82.70;46.20;;;;;;;-1.45;76.72;101227.09;4917455;29;20032;-72
2021/01/22 06:58:26;;;;;;;81.60;46.63;;;;;;;-1.40;76.95;101220.81;4951571;29;20409;-71
2021/01/22 07:01:47;;;;;;;76.10;46.27;;;;;;;-1.35;76.92;101201.91;4951802;29;20046;-71
2021/01/22 07:04:30;;;;;;;79.50;46.20;;;;;;;-1.18;76.51;101212.00;4894325;29;20076;-70
2021/01/22 07:07:06;;;;;;;91.23;49.47;;;;;;;-1.29;77.43;101212.63;4894480;29;20041;-71
2021/01/22 07:09:45;;;;;;;78.27;46.77;;;;;;;-1.17;77.14;101220.53;4894393;29;20049;-69
2021/01/22 07:12:11;;;;;;;84.17;47.47;;;;;;;-1.13;76.61;101199.78;4894138;29;20123;-71
2021/01/22 07:14:37;;;;;;;82.67;47.43;;;;;;;-1.05;76.72;101206.47;4894128;29;20120;-71
2021/01/22 07:17:36;;;;;;;89.03;48.43;;;;;;;-0.98;76.21;101207.94;4894335;29;20168;-70
2021/01/22 07:20:09;;;;;;;79.38;46.58;;;;;;;-0.92;76.41;101213.59;4875749;29;20120;-71
2021/01/22 07:22:48;;;;;;;83.53;48.07;;;;;;;-0.88;76.07;101194.50;4875241;29;20037;-70
2021/01/22 07:25:27;;;;;;;98.93;59.35;;;;;;;-0.69;75.74;101208.16;4875401;29;20037;-70
2021/01/22 07:27:53;;;;;;;103.50;61.58;;;;;;;-0.70;75.46;101214.00;4875403;29;20044;-70
2021/01/22 07:30:18;;;;;;;105.33;59.57;;;;;;;-1.05;75.46;101125.38;4875307;29;20492;-68
2021/01/22 07:32:48;;;;;;;91.70;54.03;;;;;;;-0.44;75.53;101199.41;4860136;29;20099;-68
2021/01/22 07:35:24;;;;;;;87.63;50.33;;;;;;;-0.41;75.73;101203.13;4835300;29;20125;-70
2021/01/22 07:37:50;;;;;;;94.63;52.40;;;;;;;-0.67;75.73;101155.94;4820496;29;20050;-70
2021/01/22 07:40:17;;;;;;;87.90;52.30;;;;;;;-0.38;76.08;101199.97;4847325;29;20145;-70
2021/01/22 07:42:43;;;;;;;81.83;50.10;;;;;;;-0.39;76.27;101191.47;4875246;29;20123;-71
2021/01/22 07:45:17;;;;;;;88.77;50.97;;;;;;;-0.27;76.50;101195.91;4875180;29;20411;-71
2021/01/22 07:47:44;;;;;;;87.97;52.30;;;;;;;-0.35;76.93;101179.94;4889742;29;20132;-71
2021/01/22 07:50:11;;;;;;;87.60;51.20;;;;;;;-0.20;77.40;101200.75;4874583;29;20041;-70
2021/01/22 07:52:48;;;;;;;88.53;52.80;;;;;;;-0.08;77.89;101199.34;4875134;29;20124;-71
2021/01/22 07:55:17;;;;;;;84.03;50.97;;;;;;;0.10;77.88;101182.38;4874993;29;20506;-70
2021/01/22 07:57:43;;;;;;;85.40;51.58;;;;;;;0.15;78.26;101170.09;4923989;29;20079;-71
2021/01/22 08:00:14;;;;;;;83.93;51.80;;;;;;;0.39;77.35;101185.75;4934048;29;20083;-70
2021/01/22 08:02:54;;;;;;;85.43;53.43;;;;;;;0.52;76.85;101186.06;4933925;29;20036;-70
2021/01/22 08:05:32;;;;;;;94.20;52.63;;;;;;;0.56;76.01;101187.22;4934054;29;20035;-71
2021/01/22 08:07:58;;;;;;;91.77;51.20;;;;;;;0.51;76.34;101180.84;4933643;29;20039;-70
2021/01/22 08:10:30;;;;;;;89.17;52.73;;;;;;;0.63;76.24;101176.84;4933323;29;20406;-70
2021/01/22 08:13:00;;;;;;;108.07;60.80;;;;;;;0.85;75.45;101178.72;4927704;29;20039;-70
2021/01/22 08:15:27;;;;;;;85.13;54.33;;;;;;;0.89;75.10;101168.09;4933939;29;20034;-70
2021/01/22 08:17:53;;;;;;;86.90;52.23;;;;;;;0.88;75.93;101164.63;4931454;29;20490;-70
2021/01/22 08:20:20;;;;;;;91.43;51.00;;;;;;;0.98;76.73;101181.56;4933716;29;20082;-70
2021/01/22 08:22:56;;;;;;;185.63;81.83;;;;;;;0.94;75.71;101189.72;4933894;29;20122;-70
2021/01/22 08:25:32;;;;;;;70.70;44.50;;;;;;;0.98;75.04;101178.16;4933924;29;20019;-70
2021/01/22 08:27:59;;;;;;;78.17;46.83;;;;;;;1.18;75.60;101184.97;4933735;29;20034;-70
2021/01/22 08:30:28;;;;;;;77.93;47.67;;;;;;;1.24;76.04;101185.50;4933424;29;20023;-70
2021/01/22 08:32:55;;;;;;;75.47;46.65;;;;;;;1.23;75.70;101143.00;4979711;28;20070;-71
2021/01/22 08:35:23;;;;;;;76.90;46.57;;;;;;;1.63;74.61;101170.94;4933530;29;20027;-69
2021/01/22 08:37:50;;;;;;;77.67;47.37;;;;;;;1.82;74.71;101175.91;4923589;29;20071;-70
2021/01/22 08:40:15;;;;;;;82.77;48.80;;;;;;;2.03;73.42;101184.44;4914702;29;20113;-68
2021/01/22 08:42:57;;;;;;;76.60;47.67;;;;;;;2.07;72.62;101164.44;4913865;29;20107;-69
2021/01/22 08:45:22;;;;;;;71.30;44.50;;;;;;;2.08;72.82;101166.22;4914078;29;20028;-68
2021/01/22 08:47:48;;;;;;;74.37;46.57;;;;;;;2.29;72.71;101165.31;4912822;29;20196;-67
2021/01/22 08:50:17;;;;;;;78.30;45.77;;;;;;;2.49;72.11;101147.41;4933635;28;20043;-68
2021/01/22 08:52:42;;;;;;;71.73;42.23;;;;;;;2.52;71.37;101131.50;4928077;29;20031;-68
2021/01/22 08:55:20;;;;;;;69.93;42.23;;;;;;;2.39;70.72;101105.03;4918691;29;20487;-70
2021/01/22 08:58:04;;;;;;;448.23;166.77;;;;;;;2.81;70.55;101140.56;4916670;28;20466;-70
2021/01/22 09:00:30;;;;;;;116.10;60.97;;;;;;;2.89;70.79;101119.09;4913232;29;20060;-69
2021/01/22 09:02:56;;;;;;;66.40;41.67;;;;;;;3.03;70.92;101126.16;4915235;29;20068;-70
2021/01/22 09:05:23;;;;;;;61.50;39.07;;;;;;;3.09;70.97;101128.31;4913957;29;20024;-71
2021/01/22 09:08:08;;;;;;;62.13;40.17;;;;;;;3.32;70.78;101132.63;4917280;29;20418;-70
2021/01/22 09:10:35;;;;;;;61.80;38.47;;;;;;;3.40;70.39;101111.13;4923287;29;20035;-70
2021/01/22 09:13:15;;;;;;;54.43;36.27;;;;;;;3.29;70.20;101086.47;4946590;28;20051;-70
2021/01/22 09:15:41;;;;;;;61.80;39.70;;;;;;;3.60;70.08;101098.09;4933243;29;20028;-71
2021/01/22 09:18:21;;;;;;;58.43;39.73;;;;;;;3.76;69.59;101092.47;4933076;29;20032;-71
2021/01/22 09:21:06;;;;;;;59.83;39.80;;;;;;;3.75;69.15;101055.84;4933296;29;20549;-71
2021/01/22 09:23:32;;;;;;;70.03;42.87;;;;;;;3.97;69.41;101088.94;4932017;29;20046;-70
2021/01/22 09:26:00;;;;;;;64.27;41.00;;;;;;;4.08;69.36;101083.75;4942525;28;20397;-69
2021/01/22 09:28:26;;;;;;;56.40;38.03;;;;;;;4.11;69.36;101079.75;4938355;28;20032;-69
2021/01/22 09:30:52;;;;;;;61.13;40.20;;;;;;;4.21;69.39;101073.59;4940822;29;20042;-71
2021/01/22 09:33:17;;;;;;;63.37;40.60;;;;;;;4.35;69.30;101065.28;4941458;28;20031;-71
2021/01/22 09:35:43;;;;;;;61.60;40.20;;;;;;;4.47;69.05;101054.13;4929833;28;20024;-71
2021/01/22 09:38:09;;;;;;;64.55;38.97;;;;;;;4.64;68.72;101061.31;4947049;29;20062;-71
2021/01/22 09:40:35;;;;;;;108.75;55.67;;;;;;;4.79;68.03;101052.97;4935501;29;20027;-71
2021/01/22 09:43:00;;;;;;;76.22;46.85;;;;;;;4.87;68.22;101049.25;4917994;29;20032;-70
2021/01/22 09:45:26;;;;;;;63.78;43.17;;;;;;;4.98;67.78;101045.75;4926748;29;20028;-68
2021/01/22 09:47:52;;;;;;;66.45;45.97;;;;;;;4.91;66.60;101029.88;4917337;29;21793;-71
2021/01/22 09:50:18;;;;;;;60.47;40.15;;;;;;;5.00;67.25;101028.84;4917040;28;20523;-69
2021/01/22 09:52:46;;;;;;;54.53;37.38;;;;;;;5.11;66.97;101021.00;4932981;29;20171;-70
2021/01/22 09:55:13;;;;;;;61.03;44.88;;;;;;;5.16;66.63;101012.00;4931279;29;20043;-70
2021/01/22 09:57:39;;;;;;;61.30;40.78;;;;;;;5.39;66.91;101025.44;4932894;29;20111;-70
2021/01/22 10:00:07;;;;;;;57.08;39.17;;;;;;;5.48;66.53;101008.09;4933040;29;20202;-71
2021/01/22 10:02:33;;;;;;;60.47;39.22;;;;;;;5.59;66.14;101006.25;4933110;29;20182;-67
2021/01/22 10:04:59;;;;;;;62.00;40.33;;;;;;;5.66;66.05;100995.63;4931753;29;20071;-68
2021/01/22 10:07:24;;;;;;;52.08;35.20;;;;;;;5.74;67.68;101001.25;4935211;29;20046;-68
2021/01/22 10:09:50;;;;;;;50.40;34.42;;;;;;;5.71;67.67;100995.91;4929492;29;20036;-68
2021/01/22 10:12:15;;;;;;;51.00;33.97;;;;;;;5.81;67.21;100975.25;4932771;29;20047;-71
2021/01/22 10:14:42;;;;;;;51.50;34.28;;;;;;;5.71;66.70;100945.59;4932977;29;20107;-71
2021/01/22 10:17:08;;;;;;;51.63;35.63;;;;;;;5.93;66.75;100986.28;4931640;29;20039;-70
2021/01/22 10:19:34;;;;;;;52.15;33.67;;;;;;;6.17;66.68;100980.06;4932370;29;20435;-71
2021/01/22 10:21:59;;;;;;;199.82;76.60;;;;;;;6.39;66.30;100977.19;4933670;29;20513;-69
2021/01/22 10:24:24;;;;;;;62.17;39.03;;;;;;;6.58;65.55;100969.81;4933974;29;20051;-70
2021/01/22 10:26:50;;;;;;;114.70;53.38;;;;;;;6.67;65.29;100968.59;4936104;29;20028;-73
2021/01/22 10:29:16;;;;;;;53.42;35.88;;;;;;;6.66;65.33;100959.16;4936266;29;20092;-71
2021/01/22 10:31:42;;;;;;;48.92;35.20;;;;;;;6.70;65.03;100953.41;4935781;29;20414;-69
2021/01/22 10:34:08;;;;;;;61.45;38.05;;;;;;;6.99;65.78;100956.81;4950418;29;20052;-69
2021/01/22 10:36:33;;;;;;;63.03;38.58;;;;;;;7.11;65.10;100932.75;4935627;29;20048;-71
2021/01/22 10:38:59;;;;;;;51.13;33.72;;;;;;;7.30;64.20;100938.94;4936089;29;20039;-72
2021/01/22 10:41:25;;;;;;;47.50;29.50;;;;;;;7.45;64.11;100931.22;4939394;28;20063;-71
2021/01/22 10:43:50;;;;;;;40.90;28.42;;;;;;;7.64;63.76;100919.44;4932394;29;20031;-75
2021/01/22 10:46:16;;;;;;;44.15;29.63;;;;;;;7.76;63.90;100925.25;4939218;28;20031;-70
2021/01/22 10:48:41;;;;;;;41.13;28.80;;;;;;;7.89;63.23;100913.97;4939660;29;20039;-71
2021/01/22 10:51:08;;;;;;;42.97;30.05;;;;;;;8.08;63.32;100913.28;4936917;29;20035;-72
2021/01/22 10:53:33;;;;;;;49.85;30.08;;;;;;;8.24;62.79;100902.16;4949933;29;20399;-69
2021/01/22 10:55:59;;;;;;;44.50;28.77;;;;;;;8.33;63.02;100891.47;4949776;28;20099;-70
2021/01/22 10:58:25;;;;;;;41.97;28.73;;;;;;;8.50;62.22;100888.09;4943789;28;20078;-67
2021/01/22 11:00:52;;;;;;;43.70;29.05;;;;;;;8.40;62.33;100849.81;4940944;29;20482;-67
2021/01/22 11:03:17;;;;;;;36.88;24.98;;;;;;;8.62;64.46;100874.09;4937505;29;20457;-66
2021/01/22 11:05:43;;;;;;;30.23;23.15;;;;;;;8.50;64.35;100859.81;4935189;29;20154;-67
2021/01/22 11:08:08;;;;;;;38.28;25.75;;;;;;;8.34;64.65;100865.81;4935374;29;20032;-71
2021/01/22 11:10:34;;;;;;;36.22;26.38;;;;;;;8.55;63.95;100849.75;4935472;28;20168;-69
2021/01/22 11:12:59;;;;;;;30.77;22.88;;;;;;;8.73;64.69;100853.28;4949283;29;20040;-69
2021/01/22 11:15:25;;;;;;;34.40;23.40;;;;;;;8.79;64.42;100849.22;4949979;28;20027;-73
2021/01/22 11:17:50;;;;;;;36.45;23.85;;;;;;;8.69;64.54;100810.13;4934928;29;20413;-72